createdAt,value
2018-01-20T00:00:41.161Z,9.73
2018-01-20T00:03:08.460Z,11.33
2018-01-20T00:05:41.084Z,10.50
2018-01-20T00:08:10.203Z,10.30
2018-01-20T00:10:42.641Z,9.40
2018-01-20T00:13:10.673Z,9.90
2018-01-20T00:15:37.906Z,10.40
2018-01-20T00:18:09.326Z,10.23
2018-01-20T00:20:37.196Z,9.20
2018-01-20T00:23:06.108Z,8.30
2018-01-20T00:25:33.996Z,8.40
2018-01-20T00:28:04.393Z,8.53
2018-01-20T00:30:32.154Z,8.60
2018-01-20T00:33:02.540Z,9.10
2018-01-20T00:35:31.088Z,7.70
2018-01-20T00:38:01.066Z,6.47
2018-01-20T00:40:29.581Z,6.57
2018-01-20T00:42:58.233Z,7.90
2018-01-20T00:45:26.174Z,7.40
2018-01-20T00:47:55.204Z,6.57
2018-01-20T00:50:25.859Z,8.37
2018-01-20T00:52:52.748Z,7.77
2018-01-20T00:55:22.204Z,7.60
2018-01-20T00:57:52.482Z,7.20
2018-01-20T01:00:23.214Z,7.23
2018-01-20T01:02:53.509Z,7.00
2018-01-20T01:05:22.994Z,7.87
2018-01-20T01:07:51.541Z,8.57
2018-01-20T01:10:23.447Z,6.90
2018-01-20T01:12:53.766Z,7.90
2018-01-20T01:15:21.424Z,6.60
2018-01-20T01:17:48.633Z,6.00
2018-01-20T01:20:16.397Z,5.70
2018-01-20T01:22:43.401Z,5.13
2018-01-20T01:25:12.232Z,5.03
2018-01-20T01:27:41.540Z,5.03
2018-01-20T01:30:10.156Z,6.60
2018-01-20T01:32:37.583Z,6.63
2018-01-20T01:35:06.876Z,7.27
2018-01-20T01:37:36.891Z,11.23
2018-01-20T01:40:04.939Z,12.53
2018-01-20T01:42:32.736Z,11.20
2018-01-20T01:45:05.642Z,10.77
2018-01-20T01:47:32.665Z,9.17
2018-01-20T01:49:59.574Z,7.43
2018-01-20T01:52:28.144Z,7.17
2018-01-20T01:54:56.783Z,5.87
2018-01-20T01:57:23.943Z,6.40
2018-01-20T01:59:51.954Z,5.77
2018-01-20T02:02:21.167Z,6.43
2018-01-20T02:04:48.550Z,6.17
2018-01-20T02:07:15.994Z,6.53
2018-01-20T02:09:44.818Z,4.90
2018-01-20T02:12:15.390Z,5.73
2018-01-20T02:14:42.813Z,6.00
2018-01-20T02:17:12.064Z,6.20
2018-01-20T02:19:45.469Z,5.70
2018-01-20T02:22:18.015Z,6.27
2018-01-20T02:24:45.700Z,6.63
2018-01-20T02:27:15.247Z,6.67
2018-01-20T02:29:44.315Z,5.90
2018-01-20T02:32:12.051Z,6.53
2018-01-20T02:34:41.415Z,8.00
2018-01-20T02:37:09.388Z,7.70
2018-01-20T02:39:39.146Z,8.07
2018-01-20T02:42:06.865Z,5.23
2018-01-20T02:44:35.619Z,6.83
2018-01-20T02:47:04.290Z,6.50
2018-01-20T02:49:31.603Z,6.47
2018-01-20T02:51:58.950Z,5.93
2018-01-20T02:54:26.250Z,8.83
2018-01-20T02:56:56.255Z,6.17
2018-01-20T02:59:23.922Z,5.43
2018-01-20T03:01:51.637Z,5.70
2018-01-20T03:04:20.380Z,5.80
2018-01-20T03:06:48.299Z,5.63
2018-01-20T03:09:16.565Z,6.33
2018-01-20T03:11:44.399Z,6.83
2018-01-20T03:14:11.452Z,5.67
2018-01-20T03:16:39.267Z,4.80
2018-01-20T03:19:08.804Z,4.33
2018-01-20T03:21:37.192Z,4.83
2018-01-20T03:24:04.147Z,5.30
2018-01-20T03:26:32.446Z,4.80
2018-01-20T03:28:59.346Z,4.53
2018-01-20T03:31:26.781Z,4.43
2018-01-20T03:33:54.251Z,4.60
2018-01-20T03:36:21.049Z,5.20
2018-01-20T03:38:48.141Z,15.97
2018-01-20T03:41:15.084Z,9.13
2018-01-20T03:43:42.508Z,7.90
2018-01-20T03:46:12.561Z,6.30
2018-01-20T03:48:40.320Z,5.53
2018-01-20T03:51:07.376Z,4.77
2018-01-20T03:53:35.339Z,5.90
2018-01-20T03:56:03.537Z,4.37
2018-01-20T03:58:30.876Z,4.30
2018-01-20T04:00:58.740Z,4.93
2018-01-20T04:03:25.655Z,5.27
2018-01-20T04:05:53.256Z,5.07
2018-01-20T04:08:21.368Z,4.50
2018-01-20T04:10:49.902Z,6.13
2018-01-20T04:13:18.672Z,10.07
2018-01-20T04:15:46.965Z,7.60
2018-01-20T04:18:14.854Z,9.37
2018-01-20T04:20:43.020Z,6.37
2018-01-20T04:23:12.088Z,6.73
2018-01-20T04:25:39.798Z,7.43
2018-01-20T04:28:09.398Z,13.57
2018-01-20T04:30:39.473Z,10.70
2018-01-20T04:33:06.622Z,11.67
2018-01-20T04:35:33.895Z,7.27
2018-01-20T04:38:02.762Z,7.27
2018-01-20T04:40:30.446Z,7.93
2018-01-20T04:42:58.421Z,7.33
2018-01-20T04:45:26.264Z,9.60
2018-01-20T04:47:53.741Z,10.00
2018-01-20T04:50:23.224Z,6.67
2018-01-20T04:52:50.790Z,11.83
2018-01-20T04:55:17.732Z,9.60
2018-01-20T04:57:47.568Z,8.90
2018-01-20T05:00:14.716Z,7.20
2018-01-20T05:02:41.881Z,7.03
2018-01-20T05:05:09.647Z,6.93
2018-01-20T05:07:37.092Z,7.03
2018-01-20T05:10:04.773Z,10.07
2018-01-20T05:12:32.542Z,6.70
2018-01-20T05:14:59.597Z,6.87
2018-01-20T05:17:30.427Z,7.50
2018-01-20T05:19:57.435Z,7.90
2018-01-20T05:22:26.720Z,9.03
2018-01-20T05:24:54.142Z,10.20
2018-01-20T05:27:22.662Z,9.90
2018-01-20T05:29:50.038Z,11.87
2018-01-20T05:32:16.870Z,9.90
2018-01-20T05:34:46.527Z,10.83
2018-01-20T05:37:14.232Z,9.83
2018-01-20T05:39:41.886Z,14.10
2018-01-20T05:42:08.492Z,25.17
2018-01-20T05:44:37.344Z,11.47
2018-01-20T05:47:05.097Z,16.73
2018-01-20T05:49:33.568Z,23.37
2018-01-20T05:52:00.742Z,20.20
2018-01-20T05:54:28.757Z,13.03
2018-01-20T05:56:56.563Z,8.17
2018-01-20T05:59:23.325Z,9.77
2018-01-20T06:01:50.170Z,17.67
2018-01-20T06:04:18.326Z,6.43
2018-01-20T06:06:46.079Z,12.73
2018-01-20T06:09:13.028Z,8.57
2018-01-20T06:11:40.846Z,35.23
2018-01-20T06:14:07.507Z,34.27
2018-01-20T06:16:36.894Z,33.10
2018-01-20T06:19:06.279Z,25.43
2018-01-20T06:21:33.875Z,28.80
2018-01-20T06:24:01.511Z,19.30
2018-01-20T06:26:28.686Z,18.13
2018-01-20T06:28:55.454Z,26.80
2018-01-20T06:31:23.681Z,23.90
2018-01-20T06:33:50.856Z,27.63
2018-01-20T06:36:19.306Z,40.70
2018-01-20T06:38:45.987Z,33.63
2018-01-20T06:41:12.756Z,32.50
2018-01-20T06:43:41.295Z,13.70
2018-01-20T06:46:08.908Z,10.60
2018-01-20T06:48:36.834Z,9.63
2018-01-20T06:51:05.659Z,12.97
2018-01-20T06:53:32.608Z,14.87
2018-01-20T06:55:59.290Z,27.13
2018-01-20T06:58:28.224Z,23.57
2018-01-20T07:00:55.191Z,22.10
2018-01-20T07:03:23.052Z,25.70
2018-01-20T07:05:50.935Z,23.70
2018-01-20T07:08:17.786Z,22.47
2018-01-20T07:10:46.074Z,28.10
2018-01-20T07:13:16.664Z,27.80
2018-01-20T07:15:45.034Z,30.47
2018-01-20T07:18:12.574Z,38.33
2018-01-20T07:20:39.892Z,52.17
2018-01-20T07:23:07.815Z,64.33
2018-01-20T07:25:34.628Z,82.20
2018-01-20T07:28:01.602Z,80.10
2018-01-20T07:30:28.846Z,77.23
2018-01-20T07:32:56.780Z,73.20
2018-01-20T07:35:24.619Z,67.17
2018-01-20T07:37:53.549Z,62.00
2018-01-20T07:46:08.112Z,37.13
2018-01-20T07:48:37.177Z,48.20
2018-01-20T07:51:03.824Z,50.73
2018-01-20T07:53:31.394Z,78.17
2018-01-20T07:55:59.638Z,65.97
2018-01-20T07:58:26.537Z,73.87
2018-01-20T08:00:53.027Z,71.13
2018-01-20T08:03:20.210Z,66.37
2018-01-20T08:05:47.743Z,86.23
2018-01-20T08:08:15.780Z,89.93
2018-01-20T08:10:42.948Z,88.53
2018-01-20T08:13:10.641Z,124.83
2018-01-20T08:15:38.801Z,139.17
2018-01-20T08:18:05.800Z,116.23
2018-01-20T08:20:32.402Z,99.30
2018-01-20T08:22:58.659Z,80.87
2018-01-20T08:25:30.534Z,54.23
2018-01-20T08:27:56.731Z,43.03
2018-01-20T08:30:22.970Z,20.77
2018-01-20T08:32:49.262Z,22.80
2018-01-20T08:35:15.579Z,22.93
2018-01-20T08:37:42.058Z,26.00
2018-01-20T08:40:08.413Z,41.33
2018-01-20T08:42:34.596Z,27.00
2018-01-20T08:45:00.869Z,11.43
2018-01-20T08:47:27.111Z,14.70
2018-01-20T08:49:53.446Z,11.53
2018-01-20T08:52:19.970Z,14.23
2018-01-20T08:54:50.353Z,12.57
2018-01-20T08:57:20.262Z,7.97
2018-01-20T08:59:47.942Z,7.57
2018-01-20T09:02:16.480Z,13.53
2018-01-20T09:04:49.319Z,6.00
2018-01-20T09:07:22.420Z,9.23
2018-01-20T09:09:51.640Z,7.60
2018-01-20T09:12:22.469Z,31.93
2018-01-20T09:14:53.061Z,19.03
2018-01-20T09:17:21.137Z,43.87
2018-01-20T09:19:51.016Z,61.97
2018-01-20T09:24:53.972Z,13.50
2018-01-20T09:27:22.844Z,16.10
2018-01-20T09:29:50.095Z,7.07
2018-01-20T09:32:18.972Z,9.47
2018-01-20T09:34:47.062Z,12.87
2018-01-20T09:37:14.758Z,8.13
2018-01-20T09:39:42.580Z,7.57
2018-01-20T09:42:12.102Z,9.17
2018-01-20T09:44:42.669Z,9.17
2018-01-20T09:47:11.615Z,10.10
2018-01-20T09:49:40.443Z,12.40
2018-01-20T09:52:08.989Z,16.67
2018-01-20T09:54:37.018Z,21.90
2018-01-20T09:57:06.635Z,47.03
2018-01-20T09:59:34.044Z,65.10
2018-01-20T10:02:00.848Z,24.13
2018-01-20T10:04:28.732Z,20.00
2018-01-20T10:06:56.169Z,20.43
2018-01-20T10:09:23.043Z,21.63
2018-01-20T10:11:52.907Z,22.30
2018-01-20T10:14:21.786Z,31.73
2018-01-20T10:16:52.084Z,30.83
2018-01-20T10:19:21.834Z,31.53
2018-01-20T10:24:24.459Z,25.17
2018-01-20T10:26:52.772Z,18.40
2018-01-20T10:29:19.365Z,17.40
2018-01-20T10:34:19.540Z,37.63
2018-01-20T10:36:47.248Z,36.33
2018-01-20T10:39:17.452Z,35.97
2018-01-20T10:41:45.533Z,41.97
2018-01-20T10:44:12.774Z,28.67
2018-01-20T10:46:41.721Z,18.87
2018-01-20T10:49:08.292Z,24.87
2018-01-20T10:51:34.987Z,31.60
2018-01-20T10:54:02.448Z,30.90
2018-01-20T10:56:31.179Z,20.47
2018-01-20T10:59:00.832Z,19.23
2018-01-20T11:01:30.438Z,20.97
2018-01-20T11:03:58.711Z,16.20
2018-01-20T11:06:26.156Z,24.40
2018-01-20T11:08:54.366Z,29.17
2018-01-20T11:11:22.101Z,21.87
2018-01-20T11:13:50.899Z,21.97
2018-01-20T11:16:20.062Z,22.67
2018-01-20T11:18:48.291Z,28.00
2018-01-20T11:21:16.510Z,25.33
2018-01-20T11:23:43.962Z,35.00
2018-01-20T11:26:10.815Z,39.70
2018-01-20T11:28:37.420Z,29.93
2018-01-20T11:31:12.421Z,31.87
2018-01-20T11:33:48.400Z,29.37
2018-01-20T11:36:20.681Z,32.00
2018-01-20T11:38:52.780Z,31.93
2018-01-20T11:41:22.282Z,31.63
2018-01-20T11:43:52.218Z,31.87
2018-01-20T11:46:20.287Z,31.17
2018-01-20T11:48:51.854Z,29.17
2018-01-20T11:51:19.347Z,29.10
2018-01-20T11:53:48.621Z,31.00
2018-01-20T11:56:16.786Z,37.67
2018-01-20T11:58:52.054Z,40.33
2018-01-20T12:01:20.223Z,37.10
2018-01-20T12:03:50.445Z,28.57
2018-01-20T12:09:01.972Z,25.63
2018-01-20T12:11:29.934Z,39.10
2018-01-20T12:13:59.024Z,34.43
2018-01-20T12:16:26.274Z,39.10
2018-01-20T12:18:57.678Z,40.73
2018-01-20T12:21:27.941Z,46.37
2018-01-20T12:23:56.938Z,39.03
2018-01-20T12:26:32.346Z,7.23
2018-01-20T12:29:00.436Z,3.77
2018-01-20T12:31:27.772Z,3.67
2018-01-20T12:34:10.092Z,5.30
2018-01-20T12:39:28.717Z,4.87
2018-01-20T12:44:37.885Z,4.07
2018-01-20T12:50:09.607Z,5.20
2018-01-20T12:55:33.850Z,5.00
2018-01-20T12:58:01.420Z,4.20
2018-01-20T13:00:29.857Z,3.83
2018-01-20T13:03:03.476Z,4.20
2018-01-20T13:05:32.054Z,4.47
2018-01-20T13:08:02.760Z,4.63
2018-01-20T13:10:29.700Z,5.07
2018-01-20T13:12:56.152Z,8.33
2018-01-20T13:15:23.725Z,5.67
2018-01-20T13:17:50.054Z,5.20
2018-01-20T13:20:16.441Z,5.47
2018-01-20T13:22:42.673Z,8.00
2018-01-20T13:25:09.222Z,6.33
2018-01-20T13:27:36.047Z,5.53
2018-01-20T13:30:03.779Z,5.70
2018-01-20T13:32:32.978Z,7.30
2018-01-20T13:34:59.160Z,8.07
2018-01-20T13:37:26.195Z,5.73
2018-01-20T13:39:52.533Z,8.20
2018-01-20T13:42:18.906Z,5.20
2018-01-20T13:44:49.400Z,5.40
2018-01-20T13:47:16.554Z,10.63
2018-01-20T13:49:43.867Z,12.70
2018-01-20T13:52:10.115Z,15.07
2018-01-20T13:54:37.689Z,14.23
2018-01-20T13:57:04.239Z,9.17
2018-01-20T13:59:30.860Z,7.00
2018-01-20T14:02:04.823Z,12.30
2018-01-20T14:04:38.210Z,15.40
2018-01-20T14:09:44.482Z,16.30
2018-01-20T14:12:12.549Z,17.53
2018-01-20T14:14:40.972Z,18.20
2018-01-20T14:17:08.464Z,19.03
2018-01-20T14:19:37.696Z,22.13
2018-01-20T14:22:05.759Z,23.77
2018-01-20T14:24:33.625Z,21.40
2018-01-20T14:27:01.406Z,23.80
2018-01-20T14:29:30.835Z,18.07
2018-01-20T14:31:58.494Z,21.17
2018-01-20T14:34:27.542Z,41.47
2018-01-20T14:36:54.452Z,35.97
2018-01-20T14:41:58.570Z,23.40
2018-01-20T14:44:30.903Z,24.13
2018-01-20T14:47:00.447Z,20.20
2018-01-20T14:49:28.628Z,19.27
2018-01-20T14:51:59.841Z,15.40
2018-01-20T14:54:29.746Z,23.20
2018-01-20T14:56:58.727Z,25.90
2018-01-20T14:59:27.021Z,17.00
2018-01-20T15:01:56.530Z,17.50
2018-01-20T15:04:25.160Z,21.03
2018-01-20T15:06:53.958Z,26.50
2018-01-20T15:09:30.726Z,22.80
2018-01-20T15:12:00.125Z,18.97
2018-01-20T15:14:31.952Z,22.17
2018-01-20T15:17:09.217Z,37.77
2018-01-20T15:19:38.605Z,29.60
2018-01-20T15:22:07.740Z,29.00
2018-01-20T15:24:46.338Z,32.37
2018-01-20T15:27:23.338Z,27.63
2018-01-20T15:33:03.978Z,42.23
2018-01-20T15:35:35.600Z,18.20
2018-01-20T15:38:06.048Z,41.93
2018-01-20T15:40:43.781Z,32.07
2018-01-20T15:43:15.617Z,41.50
2018-01-20T15:45:51.282Z,31.33
2018-01-20T15:48:30.973Z,25.53
2018-01-20T15:51:00.348Z,26.80
2018-01-20T15:53:31.347Z,13.97
2018-01-20T15:55:59.705Z,27.40
2018-01-20T15:58:35.824Z,15.50
2018-01-20T16:01:18.815Z,11.50
2018-01-20T16:03:51.592Z,20.13
2018-01-20T16:06:27.119Z,17.47
2018-01-20T16:08:54.682Z,11.43
2018-01-20T16:11:32.358Z,16.27
2018-01-20T16:16:44.122Z,17.27
2018-01-20T16:19:19.072Z,12.57
2018-01-20T16:21:56.365Z,11.47
2018-01-20T16:24:26.533Z,11.90
2018-01-20T16:26:53.716Z,11.33
2018-01-20T16:29:23.489Z,12.13
2018-01-20T16:31:58.630Z,10.73
2018-01-20T16:34:29.692Z,9.63
2018-01-20T16:37:05.953Z,11.33
2018-01-20T16:39:34.028Z,11.97
2018-01-20T16:42:03.671Z,19.47
2018-01-20T16:44:32.485Z,17.97
2018-01-20T16:47:01.811Z,16.97
2018-01-20T16:49:32.688Z,32.27
2018-01-20T16:52:02.143Z,20.03
2018-01-20T16:54:32.635Z,15.60
2018-01-20T16:57:00.859Z,17.93
2018-01-20T16:59:34.231Z,26.20
2018-01-20T17:02:03.746Z,38.80
2018-01-20T17:04:38.149Z,22.20
2018-01-20T17:07:08.992Z,29.43
2018-01-20T17:09:43.082Z,27.03
2018-01-20T17:12:15.905Z,21.20
2018-01-20T17:14:52.151Z,22.60
2018-01-20T17:17:22.946Z,26.67
2018-01-20T17:20:02.429Z,19.67
2018-01-20T17:22:35.893Z,19.73
2018-01-20T17:25:08.862Z,16.97
2018-01-20T17:27:37.432Z,19.53
2018-01-20T17:30:10.763Z,28.30
2018-01-20T17:32:39.697Z,28.43
2018-01-20T17:35:11.802Z,26.60
2018-01-20T17:37:44.152Z,32.73
2018-01-20T17:40:13.393Z,26.70
2018-01-20T17:42:41.641Z,23.80
2018-01-20T17:45:12.119Z,25.03
2018-01-20T17:47:41.196Z,28.23
2018-01-20T17:50:09.901Z,23.80
2018-01-20T17:52:40.288Z,24.63
2018-01-20T17:55:11.206Z,26.43
2018-01-20T17:57:42.406Z,29.07
2018-01-20T18:00:14.365Z,26.20
2018-01-20T18:02:45.359Z,30.00
2018-01-20T18:05:16.136Z,25.53
2018-01-20T18:07:47.942Z,22.77
2018-01-20T18:10:20.465Z,24.23
2018-01-20T18:12:50.533Z,22.60
2018-01-20T18:15:20.554Z,23.10
2018-01-20T18:17:46.983Z,23.50
2018-01-20T18:20:16.769Z,22.97
2018-01-20T18:22:44.395Z,21.40
2018-01-20T18:25:11.075Z,24.93
2018-01-20T18:27:37.416Z,26.87
2018-01-20T18:30:05.040Z,27.00
2018-01-20T18:32:31.912Z,31.50
2018-01-20T18:34:59.797Z,25.87
2018-01-20T18:37:27.628Z,28.73
2018-01-20T18:39:55.666Z,28.40
2018-01-20T18:42:24.953Z,31.63
2018-01-20T18:44:55.542Z,32.03
2018-01-20T18:47:23.522Z,31.07
2018-01-20T18:49:53.950Z,31.63
2018-01-20T18:52:20.341Z,33.07
2018-01-20T18:54:46.874Z,32.63
2018-01-20T18:57:13.309Z,36.80
2018-01-20T18:59:39.726Z,43.60
2018-01-20T19:02:06.056Z,37.37
2018-01-20T19:04:32.482Z,40.17
2018-01-20T19:06:58.988Z,46.27
2018-01-20T19:09:26.483Z,34.33
2018-01-20T19:11:52.779Z,28.63
2018-01-20T19:14:20.196Z,29.40
2018-01-20T19:16:46.688Z,28.77
2018-01-20T19:19:13.026Z,30.13
2018-01-20T19:21:40.122Z,29.40
2018-01-20T19:24:06.954Z,25.97
2018-01-20T19:26:35.287Z,26.27
2018-01-20T19:29:01.676Z,27.20
2018-01-20T19:31:28.977Z,24.47
2018-01-20T19:33:56.199Z,20.73
2018-01-20T19:36:23.405Z,22.17
2018-01-20T19:38:49.727Z,23.10
2018-01-20T19:41:16.002Z,22.27
2018-01-20T19:43:42.491Z,20.50
2018-01-20T19:46:08.850Z,19.43
2018-01-20T19:48:36.775Z,17.50
2018-01-20T19:51:04.284Z,15.00
2018-01-20T19:53:30.986Z,17.07
2018-01-20T19:55:58.341Z,21.03
2018-01-20T19:58:25.011Z,19.93
2018-01-20T20:00:51.405Z,20.70
2018-01-20T20:03:17.791Z,25.70
2018-01-20T20:05:44.178Z,23.10
2018-01-20T20:08:10.732Z,16.77
2018-01-20T20:10:37.157Z,17.77
2018-01-20T20:13:03.360Z,15.03
2018-01-20T20:15:30.110Z,15.80
2018-01-20T20:17:57.037Z,20.10
2018-01-20T20:20:23.596Z,18.40
2018-01-20T20:22:50.009Z,16.23
2018-01-20T20:25:16.879Z,24.63
2018-01-20T20:27:43.224Z,23.40
2018-01-20T20:30:09.637Z,18.23
2018-01-20T20:32:36.226Z,18.00
2018-01-20T20:35:03.624Z,16.77
2018-01-20T20:37:30.054Z,17.53
2018-01-20T20:39:56.301Z,16.07
2018-01-20T20:42:22.761Z,18.13
2018-01-20T20:44:51.658Z,21.30
2018-01-20T20:47:18.121Z,12.93
2018-01-20T20:49:45.471Z,15.43
2018-01-20T20:52:11.815Z,14.57
2018-01-20T20:54:38.600Z,15.53
2018-01-20T20:57:04.795Z,18.27
2018-01-20T20:59:31.030Z,23.17
2018-01-20T21:01:57.464Z,13.13
2018-01-20T21:04:24.018Z,10.00
2018-01-20T21:06:50.415Z,11.07
2018-01-20T21:09:17.276Z,15.37
2018-01-20T21:11:43.689Z,17.53
2018-01-20T21:14:13.535Z,15.87
2018-01-20T21:16:40.634Z,12.17
2018-01-20T21:19:06.950Z,17.67
2018-01-20T21:21:33.753Z,12.37
2018-01-20T21:24:00.348Z,11.33
2018-01-20T21:26:26.683Z,15.23
2018-01-20T21:28:53.119Z,9.60
2018-01-20T21:31:19.759Z,8.43
2018-01-20T21:33:46.217Z,7.30
2018-01-20T21:36:12.653Z,7.37
2018-01-20T21:38:39.091Z,7.93
2018-01-20T21:41:05.357Z,7.80
2018-01-20T21:43:31.835Z,7.37
2018-01-20T21:45:58.300Z,6.67
2018-01-20T21:48:24.760Z,9.20
2018-01-20T21:59:42.137Z,7.33
2018-01-20T22:02:09.980Z,6.63
2018-01-20T22:04:40.452Z,6.40
2018-01-20T22:07:07.908Z,6.57
2018-01-20T22:09:35.925Z,9.17
2018-01-20T22:12:04.106Z,7.63
2018-01-20T22:14:32.551Z,11.10
2018-01-20T22:17:00.044Z,8.37
2018-01-20T22:19:27.480Z,10.70
2018-01-20T22:21:56.002Z,15.90
2018-01-20T22:24:26.004Z,8.73
2018-01-20T22:26:53.264Z,11.53
2018-01-20T22:29:20.210Z,10.97
2018-01-20T22:31:49.399Z,18.77
2018-01-20T22:34:20.359Z,36.50
2018-01-20T22:36:49.091Z,22.07
2018-01-20T22:39:16.895Z,25.87
2018-01-20T22:41:44.756Z,11.53
2018-01-20T22:44:13.549Z,13.30
2018-01-20T22:46:44.509Z,6.97
2018-01-20T22:49:11.483Z,7.03
2018-01-20T22:51:41.312Z,7.03
2018-01-20T22:54:13.419Z,6.37
2018-01-20T22:56:43.106Z,5.90
2018-01-20T22:59:11.477Z,5.80
2018-01-20T23:01:41.309Z,6.10
2018-01-20T23:04:17.897Z,5.83
2018-01-20T23:06:49.503Z,5.20
2018-01-20T23:09:20.964Z,6.00
2018-01-20T23:14:36.336Z,6.33
2018-01-20T23:17:03.215Z,7.43
2018-01-20T23:19:31.271Z,6.37
2018-01-20T23:22:00.664Z,6.00
2018-01-20T23:24:28.984Z,5.70
2018-01-20T23:26:59.106Z,5.37
2018-01-20T23:29:27.475Z,5.20
2018-01-20T23:31:55.201Z,4.80
2018-01-20T23:34:24.063Z,4.73
2018-01-20T23:36:51.958Z,5.40
2018-01-20T23:39:20.542Z,4.73
2018-01-20T23:41:48.352Z,4.70
2018-01-20T23:44:23.046Z,5.93
2018-01-20T23:46:52.489Z,5.57
2018-01-20T23:49:20.146Z,5.97
2018-01-20T23:51:48.675Z,6.13
2018-01-20T23:54:19.492Z,5.47
2018-01-20T23:56:46.986Z,6.07
2018-01-20T23:59:15.509Z,6.37
